YSSY/SYD METAR and TAF weather

Enter ICAO airport designator
Station Type Date Time Source
YSSY METAR 2021/07/27 22:30 UTC NOAA

YSSY 272230Z 36012KT CAVOK 16/03 Q1008


Station Type Date Time Source
YSSY Decoded METAR 2021/07/27 22:30 UTC NOAA

Sydney Airport, Australia (YSSY) 33-57S 151-11E 3M
Jul 27, 2021 - 06:30 PM EDT / 2021.07.27 2230 UTC
Wind: from the N (360 degrees) at 14 MPH (12 KT):0
Visibility: greater than 7 mile(s):0
Temperature: 60 F (16 C)
Dew Point: 37 F (3 C)
Relative Humidity: 41%
Pressure (altimeter): 29.77 in. Hg (1008 hPa)
ob: YSSY 272230Z 36012KT CAVOK 16/03 Q1008
cycle: 22

Station Type Date Time Source
YSSY TAF 2021/07/27 21:47 UTC NOAA

TAF YSSY 272002Z 2721/2900 35014KT CAVOK
FM272300 33018G28KT CAVOK
FM280400 32020G35KT CAVOK
FM280900 30014KT 9999 FEW035
FM281600 23008KT 9999 FEW035

Example: see airport list